sensor_id;sensor_type;location;lat;lon;timestamp;P1;durP1;ratioP1;P2;durP2;ratioP2
62798;SDS011;48842;51.046;13.796;2023-07-13T00:02:05;3.10;;;2.00;;
62798;SDS011;48842;51.046;13.796;2023-07-13T00:04:30;4.63;;;2.47;;
62798;SDS011;48842;51.046;13.796;2023-07-13T00:06:56;2.70;;;2.43;;
62798;SDS011;48842;51.046;13.796;2023-07-13T00:09:21;6.03;;;2.13;;
62798;SDS011;48842;51.046;13.796;2023-07-13T00:11:49;2.63;;;2.07;;
62798;SDS011;48842;51.046;13.796;2023-07-13T00:14:19;1.93;;;1.83;;
62798;SDS011;48842;51.046;13.796;2023-07-13T00:16:44;2.23;;;1.87;;
62798;SDS011;48842;51.046;13.796;2023-07-13T00:19:11;1.83;;;1.73;;
62798;SDS011;48842;51.046;13.796;2023-07-13T00:21:38;2.00;;;1.90;;
62798;SDS011;48842;51.046;13.796;2023-07-13T00:24:04;5.53;;;2.10;;
62798;SDS011;48842;51.046;13.796;2023-07-13T00:26:31;2.77;;;2.37;;
62798;SDS011;48842;51.046;13.796;2023-07-13T00:28:57;1.80;;;1.70;;
62798;SDS011;48842;51.046;13.796;2023-07-13T00:31:23;2.07;;;1.97;;
62798;SDS011;48842;51.046;13.796;2023-07-13T00:33:48;2.07;;;1.97;;
62798;SDS011;48842;51.046;13.796;2023-07-13T00:36:14;4.13;;;2.20;;
62798;SDS011;48842;51.046;13.796;2023-07-13T00:38:39;4.10;;;2.13;;
62798;SDS011;48842;51.046;13.796;2023-07-13T00:41:04;1.80;;;1.70;;
62798;SDS011;48842;51.046;13.796;2023-07-13T00:43:30;4.30;;;2.67;;
62798;SDS011;48842;51.046;13.796;2023-07-13T00:48:21;2.03;;;1.83;;
62798;SDS011;48842;51.046;13.796;2023-07-13T00:50:50;2.90;;;1.80;;
62798;SDS011;48842;51.046;13.796;2023-07-13T00:53:18;2.07;;;1.97;;
62798;SDS011;48842;51.046;13.796;2023-07-13T00:55:44;2.90;;;2.10;;
62798;SDS011;48842;51.046;13.796;2023-07-13T00:58:11;3.87;;;2.60;;
62798;SDS011;48842;51.046;13.796;2023-07-13T01:00:37;5.23;;;2.53;;
62798;SDS011;48842;51.046;13.796;2023-07-13T01:03:05;2.20;;;2.00;;
62798;SDS011;48842;51.046;13.796;2023-07-13T01:05:32;6.20;;;2.60;;
62798;SDS011;48842;51.046;13.796;2023-07-13T01:07:59;3.13;;;2.17;;
62798;SDS011;48842;51.046;13.796;2023-07-13T01:10:25;2.40;;;2.20;;
62798;SDS011;48842;51.046;13.796;2023-07-13T01:12:51;3.07;;;2.47;;
62798;SDS011;48842;51.046;13.796;2023-07-13T01:18:14;3.83;;;2.60;;
62798;SDS011;48842;51.046;13.796;2023-07-13T01:20:46;2.40;;;2.20;;
62798;SDS011;48842;51.046;13.796;2023-07-13T01:23:15;3.07;;;2.83;;
62798;SDS011;48842;51.046;13.796;2023-07-13T01:25:40;3.53;;;2.50;;
62798;SDS011;48842;51.046;13.796;2023-07-13T01:28:06;8.50;;;2.70;;
62798;SDS011;48842;51.046;13.796;2023-07-13T01:30:33;2.77;;;2.50;;
62798;SDS011;48842;51.046;13.796;2023-07-13T01:32:59;9.90;;;3.07;;
62798;SDS011;48842;51.046;13.796;2023-07-13T01:35:25;9.50;;;2.87;;
62798;SDS011;48842;51.046;13.796;2023-07-13T01:37:52;2.67;;;2.47;;
62798;SDS011;48842;51.046;13.796;2023-07-13T01:40:17;4.93;;;3.00;;
62798;SDS011;48842;51.046;13.796;2023-07-13T01:42:43;5.30;;;2.80;;
62798;SDS011;48842;51.046;13.796;2023-07-13T01:45:08;2.73;;;2.53;;
62798;SDS011;48842;51.046;13.796;2023-07-13T01:47:33;6.40;;;3.17;;
62798;SDS011;48842;51.046;13.796;2023-07-13T01:49:59;5.60;;;3.13;;
62798;SDS011;48842;51.046;13.796;2023-07-13T01:52:24;6.53;;;2.40;;
62798;SDS011;48842;51.046;13.796;2023-07-13T01:54:49;4.10;;;2.50;;
62798;SDS011;48842;51.046;13.796;2023-07-13T01:57:15;2.73;;;2.53;;
62798;SDS011;48842;51.046;13.796;2023-07-13T01:59:40;8.13;;;2.90;;
62798;SDS011;48842;51.046;13.796;2023-07-13T02:02:05;3.00;;;2.67;;
62798;SDS011;48842;51.046;13.796;2023-07-13T02:04:30;3.17;;;2.97;;
62798;SDS011;48842;51.046;13.796;2023-07-13T02:06:56;4.10;;;2.83;;
62798;SDS011;48842;51.046;13.796;2023-07-13T02:09:21;3.83;;;2.60;;
62798;SDS011;48842;51.046;13.796;2023-07-13T02:11:46;5.03;;;3.40;;
62798;SDS011;48842;51.046;13.796;2023-07-13T02:14:13;5.77;;;3.03;;
62798;SDS011;48842;51.046;13.796;2023-07-13T02:16:40;5.80;;;3.47;;
62798;SDS011;48842;51.046;13.796;2023-07-13T02:19:05;3.90;;;3.03;;
62798;SDS011;48842;51.046;13.796;2023-07-13T02:21:31;4.30;;;2.90;;
62798;SDS011;48842;51.046;13.796;2023-07-13T02:23:56;5.03;;;3.30;;
62798;SDS011;48842;51.046;13.796;2023-07-13T02:26:22;4.30;;;3.20;;
62798;SDS011;48842;51.046;13.796;2023-07-13T02:28:47;5.43;;;3.10;;
62798;SDS011;48842;51.046;13.796;2023-07-13T02:31:14;4.63;;;3.20;;
62798;SDS011;48842;51.046;13.796;2023-07-13T02:33:40;4.17;;;3.23;;
62798;SDS011;48842;51.046;13.796;2023-07-13T02:36:06;4.70;;;3.13;;
62798;SDS011;48842;51.046;13.796;2023-07-13T02:38:33;4.60;;;2.90;;
62798;SDS011;48842;51.046;13.796;2023-07-13T02:40:59;5.80;;;3.13;;
62798;SDS011;48842;51.046;13.796;2023-07-13T02:43:26;11.43;;;3.63;;
62798;SDS011;48842;51.046;13.796;2023-07-13T02:45:51;7.30;;;4.10;;
62798;SDS011;48842;51.046;13.796;2023-07-13T02:48:17;5.53;;;3.27;;
62798;SDS011;48842;51.046;13.796;2023-07-13T02:50:42;6.43;;;3.93;;
62798;SDS011;48842;51.046;13.796;2023-07-13T02:53:09;4.60;;;2.70;;
62798;SDS011;48842;51.046;13.796;2023-07-13T02:55:34;7.17;;;3.97;;
62798;SDS011;48842;51.046;13.796;2023-07-13T02:57:59;6.63;;;3.80;;
62798;SDS011;48842;51.046;13.796;2023-07-13T03:00:25;5.13;;;3.30;;
62798;SDS011;48842;51.046;13.796;2023-07-13T03:02:50;7.60;;;3.50;;
62798;SDS011;48842;51.046;13.796;2023-07-13T03:05:16;10.10;;;4.30;;
62798;SDS011;48842;51.046;13.796;2023-07-13T03:07:42;3.77;;;3.40;;
62798;SDS011;48842;51.046;13.796;2023-07-13T03:10:08;6.20;;;3.13;;
62798;SDS011;48842;51.046;13.796;2023-07-13T03:12:35;4.77;;;3.50;;
62798;SDS011;48842;51.046;13.796;2023-07-13T03:15:00;3.50;;;3.13;;
62798;SDS011;48842;51.046;13.796;2023-07-13T03:17:25;4.80;;;3.40;;
62798;SDS011;48842;51.046;13.796;2023-07-13T03:19:51;5.53;;;3.27;;
62798;SDS011;48842;51.046;13.796;2023-07-13T03:22:17;3.70;;;3.13;;
62798;SDS011;48842;51.046;13.796;2023-07-13T03:24:43;3.50;;;3.20;;
62798;SDS011;48842;51.046;13.796;2023-07-13T03:27:08;5.07;;;3.37;;
62798;SDS011;48842;51.046;13.796;2023-07-13T03:29:33;5.10;;;3.33;;
62798;SDS011;48842;51.046;13.796;2023-07-13T03:31:59;3.53;;;2.90;;
62798;SDS011;48842;51.046;13.796;2023-07-13T03:34:24;5.93;;;3.07;;
62798;SDS011;48842;51.046;13.796;2023-07-13T03:36:49;3.87;;;3.17;;
62798;SDS011;48842;51.046;13.796;2023-07-13T03:39:15;4.37;;;3.10;;
62798;SDS011;48842;51.046;13.796;2023-07-13T03:41:40;6.50;;;3.00;;
62798;SDS011;48842;51.046;13.796;2023-07-13T03:44:05;4.30;;;3.17;;
62798;SDS011;48842;51.046;13.796;2023-07-13T03:46:31;9.20;;;3.10;;
62798;SDS011;48842;51.046;13.796;2023-07-13T03:48:56;3.47;;;3.00;;
62798;SDS011;48842;51.046;13.796;2023-07-13T03:51:22;5.17;;;3.10;;
62798;SDS011;48842;51.046;13.796;2023-07-13T03:53:47;5.97;;;3.40;;
62798;SDS011;48842;51.046;13.796;2023-07-13T03:56:13;3.53;;;3.23;;
62798;SDS011;48842;51.046;13.796;2023-07-13T03:58:43;8.30;;;3.00;;
62798;SDS011;48842;51.046;13.796;2023-07-13T04:01:10;3.37;;;3.07;;
62798;SDS011;48842;51.046;13.796;2023-07-13T04:03:36;4.47;;;3.63;;
62798;SDS011;48842;51.046;13.796;2023-07-13T04:06:03;6.00;;;3.10;;
62798;SDS011;48842;51.046;13.796;2023-07-13T04:08:30;4.23;;;2.90;;
62798;SDS011;48842;51.046;13.796;2023-07-13T04:10:57;4.40;;;3.47;;
62798;SDS011;48842;51.046;13.796;2023-07-13T04:13:23;4.27;;;3.13;;
62798;SDS011;48842;51.046;13.796;2023-07-13T04:15:49;5.53;;;3.43;;
62798;SDS011;48842;51.046;13.796;2023-07-13T04:18:15;5.93;;;3.57;;
62798;SDS011;48842;51.046;13.796;2023-07-13T04:20:40;3.27;;;2.97;;
62798;SDS011;48842;51.046;13.796;2023-07-13T04:23:06;5.63;;;3.40;;
62798;SDS011;48842;51.046;13.796;2023-07-13T04:25:31;5.23;;;3.17;;
62798;SDS011;48842;51.046;13.796;2023-07-13T04:27:56;4.30;;;3.00;;
62798;SDS011;48842;51.046;13.796;2023-07-13T04:30:22;6.20;;;3.03;;
62798;SDS011;48842;51.046;13.796;2023-07-13T04:32:48;5.50;;;3.00;;
62798;SDS011;48842;51.046;13.796;2023-07-13T04:35:14;3.80;;;3.50;;
62798;SDS011;48842;51.046;13.796;2023-07-13T04:37:40;6.33;;;3.33;;
62798;SDS011;48842;51.046;13.796;2023-07-13T04:40:05;7.40;;;3.10;;
62798;SDS011;48842;51.046;13.796;2023-07-13T04:42:31;6.47;;;4.33;;
62798;SDS011;48842;51.046;13.796;2023-07-13T04:44:57;7.47;;;2.87;;
62798;SDS011;48842;51.046;13.796;2023-07-13T04:47:22;8.53;;;3.03;;
62798;SDS011;48842;51.046;13.796;2023-07-13T04:49:48;5.50;;;3.47;;
62798;SDS011;48842;51.046;13.796;2023-07-13T04:52:13;4.30;;;3.10;;
62798;SDS011;48842;51.046;13.796;2023-07-13T04:54:38;3.17;;;2.87;;
62798;SDS011;48842;51.046;13.796;2023-07-13T04:57:04;8.63;;;4.10;;
62798;SDS011;48842;51.046;13.796;2023-07-13T04:59:31;3.87;;;3.23;;
62798;SDS011;48842;51.046;13.796;2023-07-13T05:01:57;6.60;;;3.90;;
62798;SDS011;48842;51.046;13.796;2023-07-13T05:04:22;5.63;;;3.40;;
62798;SDS011;48842;51.046;13.796;2023-07-13T05:06:48;5.33;;;3.40;;
62798;SDS011;48842;51.046;13.796;2023-07-13T05:09:13;6.43;;;3.60;;
62798;SDS011;48842;51.046;13.796;2023-07-13T05:11:38;3.97;;;3.60;;
62798;SDS011;48842;51.046;13.796;2023-07-13T05:14:04;5.57;;;3.60;;
62798;SDS011;48842;51.046;13.796;2023-07-13T05:16:29;4.90;;;3.90;;
62798;SDS011;48842;51.046;13.796;2023-07-13T05:18:54;5.83;;;3.30;;
62798;SDS011;48842;51.046;13.796;2023-07-13T05:21:20;4.50;;;3.50;;
62798;SDS011;48842;51.046;13.796;2023-07-13T05:23:45;5.43;;;3.60;;
62798;SDS011;48842;51.046;13.796;2023-07-13T05:26:10;5.10;;;3.70;;
62798;SDS011;48842;51.046;13.796;2023-07-13T05:28:36;5.30;;;3.80;;
62798;SDS011;48842;51.046;13.796;2023-07-13T05:31:01;6.03;;;3.20;;
62798;SDS011;48842;51.046;13.796;2023-07-13T05:33:27;4.10;;;3.23;;
62798;SDS011;48842;51.046;13.796;2023-07-13T05:35:52;5.33;;;3.30;;
62798;SDS011;48842;51.046;13.796;2023-07-13T05:38:17;4.77;;;3.60;;
62798;SDS011;48842;51.046;13.796;2023-07-13T05:40:43;4.20;;;3.47;;
62798;SDS011;48842;51.046;13.796;2023-07-13T05:43:09;5.40;;;3.60;;
62798;SDS011;48842;51.046;13.796;2023-07-13T05:45:34;5.73;;;4.20;;
62798;SDS011;48842;51.046;13.796;2023-07-13T05:48:00;5.37;;;4.20;;
62798;SDS011;48842;51.046;13.796;2023-07-13T05:50:25;12.53;;;3.70;;
62798;SDS011;48842;51.046;13.796;2023-07-13T05:52:51;5.17;;;3.57;;
62798;SDS011;48842;51.046;13.796;2023-07-13T05:55:17;9.53;;;3.80;;
62798;SDS011;48842;51.046;13.796;2023-07-13T05:57:42;8.13;;;3.70;;
62798;SDS011;48842;51.046;13.796;2023-07-13T06:00:08;5.33;;;4.53;;
62798;SDS011;48842;51.046;13.796;2023-07-13T06:02:34;5.03;;;4.20;;
62798;SDS011;48842;51.046;13.796;2023-07-13T06:05:00;4.60;;;3.77;;
62798;SDS011;48842;51.046;13.796;2023-07-13T06:07:25;5.57;;;4.10;;
62798;SDS011;48842;51.046;13.796;2023-07-13T06:09:50;4.60;;;3.80;;
62798;SDS011;48842;51.046;13.796;2023-07-13T06:12:16;6.47;;;3.47;;
62798;SDS011;48842;51.046;13.796;2023-07-13T06:14:41;7.23;;;3.90;;
62798;SDS011;48842;51.046;13.796;2023-07-13T06:17:07;4.80;;;3.87;;
62798;SDS011;48842;51.046;13.796;2023-07-13T06:19:32;5.77;;;3.60;;
62798;SDS011;48842;51.046;13.796;2023-07-13T06:21:57;4.13;;;3.60;;
62798;SDS011;48842;51.046;13.796;2023-07-13T06:24:23;8.40;;;4.50;;
62798;SDS011;48842;51.046;13.796;2023-07-13T06:26:49;4.67;;;3.30;;
62798;SDS011;48842;51.046;13.796;2023-07-13T06:29:14;5.80;;;4.70;;
62798;SDS011;48842;51.046;13.796;2023-07-13T06:31:40;5.80;;;4.43;;
62798;SDS011;48842;51.046;13.796;2023-07-13T06:34:05;7.40;;;4.80;;
62798;SDS011;48842;51.046;13.796;2023-07-13T06:36:30;4.30;;;3.30;;
62798;SDS011;48842;51.046;13.796;2023-07-13T06:38:55;8.80;;;4.43;;
62798;SDS011;48842;51.046;13.796;2023-07-13T06:41:21;5.40;;;3.50;;
62798;SDS011;48842;51.046;13.796;2023-07-13T06:43:47;6.27;;;3.40;;
62798;SDS011;48842;51.046;13.796;2023-07-13T06:46:12;7.43;;;3.53;;
62798;SDS011;48842;51.046;13.796;2023-07-13T06:48:37;11.90;;;3.43;;
62798;SDS011;48842;51.046;13.796;2023-07-13T06:51:03;9.57;;;3.23;;
62798;SDS011;48842;51.046;13.796;2023-07-13T06:53:28;7.00;;;3.23;;
62798;SDS011;48842;51.046;13.796;2023-07-13T06:55:53;8.27;;;3.27;;
62798;SDS011;48842;51.046;13.796;2023-07-13T06:58:19;5.33;;;3.33;;
62798;SDS011;48842;51.046;13.796;2023-07-13T07:00:45;3.40;;;2.60;;
62798;SDS011;48842;51.046;13.796;2023-07-13T07:03:11;3.73;;;3.00;;
62798;SDS011;48842;51.046;13.796;2023-07-13T07:05:36;7.63;;;2.30;;
62798;SDS011;48842;51.046;13.796;2023-07-13T07:08:02;5.40;;;2.30;;
62798;SDS011;48842;51.046;13.796;2023-07-13T07:10:28;4.70;;;3.07;;
62798;SDS011;48842;51.046;13.796;2023-07-13T07:12:55;6.50;;;3.07;;
62798;SDS011;48842;51.046;13.796;2023-07-13T07:15:20;4.67;;;2.40;;
62798;SDS011;48842;51.046;13.796;2023-07-13T07:17:45;3.00;;;2.07;;
62798;SDS011;48842;51.046;13.796;2023-07-13T07:20:11;13.87;;;3.80;;
62798;SDS011;48842;51.046;13.796;2023-07-13T07:22:37;4.83;;;2.53;;
62798;SDS011;48842;51.046;13.796;2023-07-13T07:25:02;6.60;;;2.20;;
62798;SDS011;48842;51.046;13.796;2023-07-13T07:27:28;3.70;;;2.60;;
62798;SDS011;48842;51.046;13.796;2023-07-13T07:29:53;5.77;;;2.80;;
62798;SDS011;48842;51.046;13.796;2023-07-13T07:32:19;6.93;;;2.57;;
62798;SDS011;48842;51.046;13.796;2023-07-13T07:34:45;5.90;;;2.80;;
62798;SDS011;48842;51.046;13.796;2023-07-13T07:37:11;3.57;;;2.90;;
62798;SDS011;48842;51.046;13.796;2023-07-13T07:39:37;11.07;;;2.40;;
62798;SDS011;48842;51.046;13.796;2023-07-13T07:42:03;4.40;;;2.33;;
62798;SDS011;48842;51.046;13.796;2023-07-13T07:44:28;5.37;;;2.50;;
62798;SDS011;48842;51.046;13.796;2023-07-13T07:46:53;7.20;;;2.57;;
62798;SDS011;48842;51.046;13.796;2023-07-13T07:49:19;4.40;;;2.73;;
62798;SDS011;48842;51.046;13.796;2023-07-13T07:51:44;5.53;;;2.30;;
62798;SDS011;48842;51.046;13.796;2023-07-13T07:54:09;4.90;;;2.70;;
62798;SDS011;48842;51.046;13.796;2023-07-13T07:56:35;6.00;;;2.33;;
62798;SDS011;48842;51.046;13.796;2023-07-13T07:59:00;3.53;;;2.53;;
62798;SDS011;48842;51.046;13.796;2023-07-13T08:01:25;3.20;;;2.93;;
62798;SDS011;48842;51.046;13.796;2023-07-13T08:03:50;4.80;;;2.63;;
62798;SDS011;48842;51.046;13.796;2023-07-13T08:06:16;5.10;;;2.60;;
62798;SDS011;48842;51.046;13.796;2023-07-13T08:08:41;7.70;;;2.73;;
62798;SDS011;48842;51.046;13.796;2023-07-13T08:11:07;4.33;;;2.70;;
62798;SDS011;48842;51.046;13.796;2023-07-13T08:13:35;5.27;;;2.20;;
62798;SDS011;48842;51.046;13.796;2023-07-13T08:16:01;8.70;;;2.07;;
62798;SDS011;48842;51.046;13.796;2023-07-13T08:18:26;3.13;;;2.43;;
62798;SDS011;48842;51.046;13.796;2023-07-13T08:20:53;10.27;;;2.17;;
62798;SDS011;48842;51.046;13.796;2023-07-13T08:23:20;2.30;;;1.93;;
62798;SDS011;48842;51.046;13.796;2023-07-13T08:25:52;7.93;;;1.50;;
62798;SDS011;48842;51.046;13.796;2023-07-13T08:28:19;3.23;;;1.80;;
62798;SDS011;48842;51.046;13.796;2023-07-13T08:30:45;3.00;;;1.90;;
62798;SDS011;48842;51.046;13.796;2023-07-13T08:33:13;4.97;;;2.40;;
62798;SDS011;48842;51.046;13.796;2023-07-13T08:35:45;2.33;;;1.70;;
62798;SDS011;48842;51.046;13.796;2023-07-13T08:38:11;2.87;;;2.10;;
62798;SDS011;48842;51.046;13.796;2023-07-13T08:40:36;3.03;;;1.80;;
62798;SDS011;48842;51.046;13.796;2023-07-13T08:43:02;10.63;;;2.30;;
62798;SDS011;48842;51.046;13.796;2023-07-13T08:45:30;4.30;;;2.07;;
62798;SDS011;48842;51.046;13.796;2023-07-13T08:48:09;6.50;;;2.13;;
62798;SDS011;48842;51.046;13.796;2023-07-13T08:50:48;2.40;;;2.03;;
62798;SDS011;48842;51.046;13.796;2023-07-13T08:53:16;5.43;;;1.67;;
62798;SDS011;48842;51.046;13.796;2023-07-13T08:55:42;5.87;;;2.10;;
62798;SDS011;48842;51.046;13.796;2023-07-13T08:58:11;4.63;;;1.90;;
62798;SDS011;48842;51.046;13.796;2023-07-13T09:01:00;3.73;;;1.67;;
62798;SDS011;48842;51.046;13.796;2023-07-13T09:03:30;7.63;;;2.37;;
62798;SDS011;48842;51.046;13.796;2023-07-13T09:06:03;4.63;;;1.93;;
62798;SDS011;48842;51.046;13.796;2023-07-13T09:08:38;3.00;;;1.70;;
62798;SDS011;48842;51.046;13.796;2023-07-13T09:11:17;9.53;;;1.93;;
62798;SDS011;48842;51.046;13.796;2023-07-13T09:14:06;2.40;;;1.90;;
62798;SDS011;48842;51.046;13.796;2023-07-13T09:16:44;3.00;;;1.90;;
62798;SDS011;48842;51.046;13.796;2023-07-13T09:19:15;4.67;;;1.93;;
62798;SDS011;48842;51.046;13.796;2023-07-13T09:21:48;2.97;;;1.63;;
62798;SDS011;48842;51.046;13.796;2023-07-13T09:27:39;5.90;;;1.53;;
62798;SDS011;48842;51.046;13.796;2023-07-13T09:32:38;4.03;;;1.60;;
62798;SDS011;48842;51.046;13.796;2023-07-13T09:35:10;3.27;;;1.50;;
62798;SDS011;48842;51.046;13.796;2023-07-13T09:37:36;4.07;;;1.63;;
62798;SDS011;48842;51.046;13.796;2023-07-13T09:40:02;5.50;;;2.00;;
62798;SDS011;48842;51.046;13.796;2023-07-13T09:42:30;6.20;;;1.77;;
62798;SDS011;48842;51.046;13.796;2023-07-13T09:44:58;11.40;;;2.20;;
62798;SDS011;48842;51.046;13.796;2023-07-13T09:47:31;3.57;;;1.50;;
62798;SDS011;48842;51.046;13.796;2023-07-13T09:50:04;2.40;;;1.77;;
62798;SDS011;48842;51.046;13.796;2023-07-13T09:52:40;2.70;;;1.83;;
62798;SDS011;48842;51.046;13.796;2023-07-13T09:55:11;2.90;;;1.37;;
62798;SDS011;48842;51.046;13.796;2023-07-13T09:57:49;5.37;;;1.90;;
62798;SDS011;48842;51.046;13.796;2023-07-13T10:00:20;2.60;;;1.70;;
62798;SDS011;48842;51.046;13.796;2023-07-13T10:02:59;3.03;;;2.23;;
62798;SDS011;48842;51.046;13.796;2023-07-13T10:05:28;2.20;;;1.70;;
62798;SDS011;48842;51.046;13.796;2023-07-13T10:08:02;2.20;;;2.00;;
62798;SDS011;48842;51.046;13.796;2023-07-13T10:10:27;2.30;;;1.83;;
62798;SDS011;48842;51.046;13.796;2023-07-13T10:12:52;3.03;;;1.60;;
62798;SDS011;48842;51.046;13.796;2023-07-13T10:15:22;2.00;;;1.40;;
62798;SDS011;48842;51.046;13.796;2023-07-13T10:17:51;3.67;;;1.80;;
62798;SDS011;48842;51.046;13.796;2023-07-13T10:20:17;4.20;;;1.77;;
62798;SDS011;48842;51.046;13.796;2023-07-13T10:22:48;6.00;;;1.70;;
62798;SDS011;48842;51.046;13.796;2023-07-13T10:25:20;5.43;;;1.60;;
62798;SDS011;48842;51.046;13.796;2023-07-13T10:27:56;7.83;;;1.40;;
62798;SDS011;48842;51.046;13.796;2023-07-13T10:30:29;1.80;;;1.30;;
62798;SDS011;48842;51.046;13.796;2023-07-13T10:32:58;3.90;;;1.50;;
62798;SDS011;48842;51.046;13.796;2023-07-13T10:35:26;4.90;;;2.10;;
62798;SDS011;48842;51.046;13.796;2023-07-13T10:37:58;1.93;;;1.50;;
62798;SDS011;48842;51.046;13.796;2023-07-13T10:40:34;3.40;;;1.27;;
62798;SDS011;48842;51.046;13.796;2023-07-13T10:43:04;2.53;;;1.50;;
62798;SDS011;48842;51.046;13.796;2023-07-13T10:45:38;1.73;;;1.33;;
62798;SDS011;48842;51.046;13.796;2023-07-13T10:48:03;2.60;;;1.60;;
62798;SDS011;48842;51.046;13.796;2023-07-13T10:50:31;5.13;;;1.93;;
62798;SDS011;48842;51.046;13.796;2023-07-13T10:53:03;3.67;;;2.00;;
62798;SDS011;48842;51.046;13.796;2023-07-13T10:58:19;2.20;;;1.40;;
62798;SDS011;48842;51.046;13.796;2023-07-13T11:03:29;5.13;;;2.00;;
62798;SDS011;48842;51.046;13.796;2023-07-13T11:06:17;3.47;;;1.70;;
62798;SDS011;48842;51.046;13.796;2023-07-13T11:13:55;3.67;;;1.60;;
62798;SDS011;48842;51.046;13.796;2023-07-13T11:16:34;4.37;;;1.77;;
62798;SDS011;48842;51.046;13.796;2023-07-13T11:21:27;3.67;;;1.87;;
62798;SDS011;48842;51.046;13.796;2023-07-13T11:24:28;2.73;;;1.77;;
62798;SDS011;48842;51.046;13.796;2023-07-13T11:31:40;6.13;;;2.23;;
62798;SDS011;48842;51.046;13.796;2023-07-13T11:34:10;5.47;;;2.27;;
62798;SDS011;48842;51.046;13.796;2023-07-13T11:36:39;2.83;;;1.77;;
62798;SDS011;48842;51.046;13.796;2023-07-13T11:41:44;6.40;;;1.90;;
62798;SDS011;48842;51.046;13.796;2023-07-13T11:44:16;3.00;;;1.63;;
62798;SDS011;48842;51.046;13.796;2023-07-13T11:46:47;2.37;;;1.70;;
62798;SDS011;48842;51.046;13.796;2023-07-13T11:49:16;2.13;;;1.40;;
62798;SDS011;48842;51.046;13.796;2023-07-13T11:51:42;4.27;;;2.07;;
62798;SDS011;48842;51.046;13.796;2023-07-13T11:54:21;2.43;;;1.80;;
62798;SDS011;48842;51.046;13.796;2023-07-13T11:56:54;7.40;;;1.90;;
62798;SDS011;48842;51.046;13.796;2023-07-13T11:59:23;10.63;;;2.17;;
62798;SDS011;48842;51.046;13.796;2023-07-13T12:01:50;1.73;;;1.60;;
62798;SDS011;48842;51.046;13.796;2023-07-13T12:04:25;3.17;;;1.63;;
62798;SDS011;48842;51.046;13.796;2023-07-13T12:07:06;4.30;;;1.63;;
62798;SDS011;48842;51.046;13.796;2023-07-13T12:09:34;3.43;;;1.57;;
62798;SDS011;48842;51.046;13.796;2023-07-13T12:12:01;1.43;;;1.33;;
62798;SDS011;48842;51.046;13.796;2023-07-13T12:14:27;6.00;;;1.63;;
62798;SDS011;48842;51.046;13.796;2023-07-13T12:16:53;2.03;;;1.70;;
62798;SDS011;48842;51.046;13.796;2023-07-13T12:19:26;6.60;;;1.93;;
62798;SDS011;48842;51.046;13.796;2023-07-13T12:21:56;9.20;;;1.90;;
62798;SDS011;48842;51.046;13.796;2023-07-13T12:24:24;3.57;;;2.10;;
62798;SDS011;48842;51.046;13.796;2023-07-13T12:26:58;1.93;;;1.33;;
62798;SDS011;48842;51.046;13.796;2023-07-13T12:29:29;3.13;;;1.60;;
62798;SDS011;48842;51.046;13.796;2023-07-13T12:31:54;3.73;;;1.83;;
62798;SDS011;48842;51.046;13.796;2023-07-13T12:34:22;4.30;;;1.70;;
62798;SDS011;48842;51.046;13.796;2023-07-13T12:36:59;3.63;;;1.87;;
62798;SDS011;48842;51.046;13.796;2023-07-13T12:39:33;2.63;;;1.50;;
62798;SDS011;48842;51.046;13.796;2023-07-13T12:47:49;4.10;;;1.80;;
62798;SDS011;48842;51.046;13.796;2023-07-13T12:50:20;5.23;;;1.67;;
62798;SDS011;48842;51.046;13.796;2023-07-13T12:52:51;2.50;;;1.60;;
62798;SDS011;48842;51.046;13.796;2023-07-13T12:55:19;2.67;;;1.47;;
62798;SDS011;48842;51.046;13.796;2023-07-13T13:02:57;4.40;;;1.43;;
62798;SDS011;48842;51.046;13.796;2023-07-13T13:05:28;2.17;;;1.97;;
62798;SDS011;48842;51.046;13.796;2023-07-13T13:07:54;2.43;;;1.40;;
62798;SDS011;48842;51.046;13.796;2023-07-13T13:10:20;2.30;;;1.20;;
62798;SDS011;48842;51.046;13.796;2023-07-13T13:12:46;1.50;;;1.40;;
62798;SDS011;48842;51.046;13.796;2023-07-13T13:15:12;1.80;;;1.20;;
62798;SDS011;48842;51.046;13.796;2023-07-13T13:17:38;4.30;;;1.90;;
62798;SDS011;48842;51.046;13.796;2023-07-13T13:20:18;2.83;;;1.57;;
62798;SDS011;48842;51.046;13.796;2023-07-13T13:22:45;4.70;;;2.03;;
62798;SDS011;48842;51.046;13.796;2023-07-13T13:25:11;1.33;;;1.23;;
62798;SDS011;48842;51.046;13.796;2023-07-13T13:27:37;3.37;;;1.33;;
62798;SDS011;48842;51.046;13.796;2023-07-13T13:30:08;3.70;;;2.10;;
62798;SDS011;48842;51.046;13.796;2023-07-13T13:32:45;3.37;;;1.57;;
62798;SDS011;48842;51.046;13.796;2023-07-13T13:35:15;6.57;;;1.73;;
62798;SDS011;48842;51.046;13.796;2023-07-13T13:37:42;5.67;;;1.13;;
62798;SDS011;48842;51.046;13.796;2023-07-13T13:40:19;2.07;;;1.20;;
62798;SDS011;48842;51.046;13.796;2023-07-13T13:42:46;2.60;;;1.20;;
62798;SDS011;48842;51.046;13.796;2023-07-13T13:45:12;1.13;;;1.00;;
62798;SDS011;48842;51.046;13.796;2023-07-13T13:47:38;2.60;;;1.33;;
62798;SDS011;48842;51.046;13.796;2023-07-13T13:50:23;2.17;;;1.10;;
62798;SDS011;48842;51.046;13.796;2023-07-13T13:52:49;1.30;;;0.97;;
62798;SDS011;48842;51.046;13.796;2023-07-13T13:55:14;1.57;;;0.93;;
62798;SDS011;48842;51.046;13.796;2023-07-13T13:57:42;2.67;;;1.40;;
62798;SDS011;48842;51.046;13.796;2023-07-13T14:00:09;1.23;;;1.00;;
62798;SDS011;48842;51.046;13.796;2023-07-13T14:02:39;9.73;;;1.53;;
62798;SDS011;48842;51.046;13.796;2023-07-13T14:05:09;3.23;;;1.70;;
62798;SDS011;48842;51.046;13.796;2023-07-13T14:07:37;3.30;;;1.37;;
62798;SDS011;48842;51.046;13.796;2023-07-13T14:10:08;3.37;;;1.20;;
62798;SDS011;48842;51.046;13.796;2023-07-13T14:12:37;2.60;;;1.30;;
62798;SDS011;48842;51.046;13.796;2023-07-13T14:15:03;2.27;;;1.10;;
62798;SDS011;48842;51.046;13.796;2023-07-13T14:17:28;3.43;;;1.00;;
62798;SDS011;48842;51.046;13.796;2023-07-13T14:19:54;1.40;;;1.30;;
62798;SDS011;48842;51.046;13.796;2023-07-13T14:22:26;0.90;;;0.80;;
62798;SDS011;48842;51.046;13.796;2023-07-13T14:24:55;3.10;;;0.90;;
62798;SDS011;48842;51.046;13.796;2023-07-13T14:27:22;2.33;;;1.27;;
62798;SDS011;48842;51.046;13.796;2023-07-13T14:29:48;5.27;;;1.13;;
62798;SDS011;48842;51.046;13.796;2023-07-13T14:32:13;2.10;;;1.13;;
62798;SDS011;48842;51.046;13.796;2023-07-13T14:34:39;8.10;;;0.90;;
62798;SDS011;48842;51.046;13.796;2023-07-13T14:37:04;3.53;;;0.90;;
62798;SDS011;48842;51.046;13.796;2023-07-13T14:39:30;1.20;;;1.10;;
62798;SDS011;48842;51.046;13.796;2023-07-13T14:41:56;5.47;;;1.10;;
62798;SDS011;48842;51.046;13.796;2023-07-13T14:44:29;10.33;;;0.97;;
62798;SDS011;48842;51.046;13.796;2023-07-13T14:46:56;3.03;;;1.13;;
62798;SDS011;48842;51.046;13.796;2023-07-13T14:49:33;5.63;;;1.40;;
62798;SDS011;48842;51.046;13.796;2023-07-13T14:52:15;6.30;;;0.93;;
62798;SDS011;48842;51.046;13.796;2023-07-13T14:54:43;1.30;;;1.10;;
62798;SDS011;48842;51.046;13.796;2023-07-13T14:57:11;2.43;;;1.23;;
62798;SDS011;48842;51.046;13.796;2023-07-13T14:59:37;2.50;;;1.17;;
62798;SDS011;48842;51.046;13.796;2023-07-13T15:02:08;5.13;;;1.53;;
62798;SDS011;48842;51.046;13.796;2023-07-13T15:04:41;1.93;;;1.40;;
62798;SDS011;48842;51.046;13.796;2023-07-13T15:07:07;11.53;;;1.60;;
62798;SDS011;48842;51.046;13.796;2023-07-13T15:09:35;4.93;;;0.80;;
62798;SDS011;48842;51.046;13.796;2023-07-13T15:12:00;2.13;;;1.20;;
62798;SDS011;48842;51.046;13.796;2023-07-13T15:14:26;4.30;;;1.60;;
62798;SDS011;48842;51.046;13.796;2023-07-13T15:16:53;3.97;;;1.80;;
62798;SDS011;48842;51.046;13.796;2023-07-13T15:19:20;2.03;;;1.33;;